Time;durP1;ratioP1;P1;durP2;ratioP2;P2;SDS_P1;SDS_P2;PMS_P1;PMS_P2;Temp;Humidity;BMP_temperature;BMP_pressure;BME280_temperature;BME280_humidity;BME280_pressure;Samples;Min_cycle;Max_cycle;Signal;HPM_P1;HPM_P2
2023/03/27 08:22:16;;;;;;;7.40;1.70;;;;;;;20.49;46.93;102286.81;5131567;27;20508;-47
2023/03/27 08:24:44;;;;;;;2.72;1.92;;;;;;;21.40;44.58;102278.84;5110680;28;20165;-48
2023/03/27 08:27:14;;;;;;;2.38;1.45;;;;;;;22.27;42.64;102279.91;5110880;28;20408;-49
2023/03/27 08:29:42;;;;;;;5.13;1.85;;;;;;;22.84;41.28;102274.34;5097439;28;20047;-49
2023/03/27 08:32:11;;;;;;;6.68;2.92;;;;;;;23.29;40.23;102272.56;5089446;28;20481;-49
2023/03/27 08:34:39;;;;;;;5.63;2.88;;;;;;;23.67;39.51;102278.25;5089521;28;20106;-50
2023/03/27 08:37:09;;;;;;;8.88;2.65;;;;;;;23.78;39.23;102276.03;5093778;28;20027;-49
2023/03/27 08:39:38;;;;;;;5.32;2.80;;;;;;;24.05;38.73;102278.72;5095375;28;20101;-50
2023/03/27 08:42:08;;;;;;;5.10;2.70;;;;;;;24.12;38.71;102280.72;5092993;28;20132;-49
2023/03/27 08:44:37;;;;;;;6.80;2.83;;;;;;;24.14;38.81;102278.16;5091392;28;20366;-51
2023/03/27 08:47:10;;;;;;;6.28;2.80;;;;;;;24.26;38.74;102272.41;5093554;28;20548;-50
2023/03/27 08:49:43;;;;;;;6.65;2.78;;;;;;;24.39;38.40;102276.34;5095359;28;20029;-50
2023/03/27 08:52:16;;;;;;;5.57;2.30;;;;;;;24.50;38.08;102277.56;5092239;28;20055;-49
2023/03/27 08:54:48;;;;;;;9.85;3.25;;;;;;;24.57;37.93;102284.75;5088056;28;20029;-49
2023/03/27 08:57:20;;;;;;;7.38;2.63;;;;;;;24.51;38.16;102274.09;5094681;28;20031;-50
2023/03/27 08:59:48;;;;;;;14.65;3.08;;;;;;;24.68;37.89;102290.34;5093969;28;20024;-52
2023/03/27 09:04:46;;;;;;;10.40;2.60;;;;;;;24.71;37.84;102293.09;5108267;27;20345;-50
2023/03/27 09:07:22;;;;;;;15.05;2.58;;;;;;;24.68;37.80;102290.34;5102176;28;20072;-50
2023/03/27 09:10:28;;;;;;;14.07;3.33;;;;;;;24.84;37.54;102288.22;5102070;28;20026;-48
2023/03/27 09:13:15;;;;;;;12.20;3.60;;;;;;;24.93;37.47;102285.00;5106629;28;20081;-54
2023/03/27 09:15:52;;;;;;;10.98;3.17;;;;;;;24.95;37.48;102288.56;5103000;28;20404;-50
2023/03/27 09:18:26;;;;;;;16.65;2.80;;;;;;;24.94;37.45;102287.69;5104652;28;20056;-49
2023/03/27 09:20:58;;;;;;;16.10;3.08;;;;;;;25.01;37.56;102292.25;5104395;28;20381;-49
2023/03/27 09:23:29;;;;;;;15.38;3.35;;;;;;;24.97;37.43;102298.28;5103243;28;20032;-48
2023/03/27 09:26:00;;;;;;;16.33;3.40;;;;;;;24.98;37.32;102297.44;5107594;28;20572;-48
2023/03/27 09:28:31;;;;;;;13.15;2.50;;;;;;;24.98;37.55;102296.53;5103792;28;20089;-53
2023/03/27 09:31:00;;;;;;;15.45;2.65;;;;;;;25.00;37.75;102300.97;5107527;28;20060;-51
2023/03/27 09:33:27;;;;;;;8.43;2.30;;;;;;;25.01;37.64;102304.50;5102409;28;20019;-49
2023/03/27 09:35:55;;;;;;;9.40;2.70;;;;;;;25.08;37.81;102301.19;5107420;28;20423;-53
2023/03/27 09:38:33;;;;;;;9.13;2.25;;;;;;;25.11;37.59;102303.91;5106847;28;20470;-54
2023/03/27 09:41:05;;;;;;;7.75;2.28;;;;;;;25.15;37.48;102305.78;5095252;28;20036;-54
2023/03/27 09:43:49;;;;;;;10.93;2.25;;;;;;;25.10;37.76;102306.50;5090462;28;20032;-52
2023/03/27 09:46:19;;;;;;;10.63;2.13;;;;;;;25.13;37.63;102310.09;5095182;28;20543;-50
2023/03/27 09:49:11;;;;;;;8.20;2.63;;;;;;;25.19;37.31;102312.00;5099561;28;20024;-50
2023/03/27 09:51:40;;;;;;;8.90;2.25;;;;;;;25.22;37.55;102308.59;5106516;28;20115;-48
2023/03/27 09:54:08;;;;;;;19.75;2.30;;;;;;;25.25;37.79;102317.47;5104746;28;20034;-50
2023/03/27 09:56:39;;;;;;;12.50;2.47;;;;;;;25.26;37.59;102319.25;5106867;28;20084;-49
2023/03/27 09:59:10;;;;;;;10.32;2.40;;;;;;;25.27;37.49;102315.78;5105098;28;20023;-56
2023/03/27 10:01:39;;;;;;;9.90;3.15;;;;;;;25.24;37.59;102318.31;5102630;28;20040;-52
2023/03/27 10:04:13;;;;;;;13.85;3.92;;;;;;;25.26;37.51;102324.50;5102105;28;20051;-53
2023/03/27 10:06:46;;;;;;;10.02;3.55;;;;;;;25.35;37.47;102313.38;5108402;28;20027;-51
2023/03/27 10:09:34;;;;;;;14.05;3.28;;;;;;;25.40;37.30;102317.00;5104179;28;20448;-53
2023/03/27 10:12:11;;;;;;;9.55;2.88;;;;;;;25.35;37.57;102321.25;5092302;28;20101;-49
2023/03/27 10:14:41;;;;;;;8.25;2.67;;;;;;;25.26;37.42;102323.59;5095673;28;20036;-52
2023/03/27 10:17:34;;;;;;;14.90;2.85;;;;;;;25.25;37.66;102321.81;5092023;28;20052;-51
2023/03/27 10:20:10;;;;;;;8.38;2.85;;;;;;;25.29;37.49;102321.97;5084956;28;20035;-53
2023/03/27 10:22:40;;;;;;;8.50;3.05;;;;;;;25.44;37.29;102307.50;5089225;28;20081;-51
2023/03/27 10:25:17;;;;;;;13.40;2.00;;;;;;;25.61;36.99;102315.84;5094676;28;20389;-50
2023/03/27 10:27:45;;;;;;;6.00;2.20;;;;;;;25.65;37.08;102316.84;5089571;28;20024;-52
2023/03/27 10:30:32;;;;;;;7.95;3.13;;;;;;;25.70;36.98;102315.22;5091604;28;20016;-50
2023/03/27 10:32:59;;;;;;;11.07;5.25;;;;;;;25.68;37.12;102323.06;5091470;28;20031;-52
2023/03/27 10:35:29;;;;;;;10.85;5.22;;;;;;;25.57;37.32;102335.00;5093199;28;20020;-52
2023/03/27 10:37:57;;;;;;;10.73;6.10;;;;;;;25.55;37.50;102323.59;5089352;28;20108;-51
2023/03/27 10:40:27;;;;;;;14.48;6.13;;;;;;;25.51;37.25;102325.22;5087844;28;20028;-49
2023/03/27 10:42:58;;;;;;;15.77;5.95;;;;;;;25.51;37.50;102330.47;5088090;28;20489;-49
2023/03/27 10:45:27;;;;;;;17.80;6.05;;;;;;;25.51;37.39;102329.59;5089992;28;20085;-49
2023/03/27 10:47:58;;;;;;;11.88;5.47;;;;;;;25.48;37.38;102330.41;5084507;28;20032;-49
2023/03/27 10:50:46;;;;;;;10.68;4.88;;;;;;;25.43;37.68;102335.50;5090392;28;20032;-49
2023/03/27 10:53:31;;;;;;;12.32;5.13;;;;;;;25.36;38.14;102324.75;5084673;28;20035;-50
2023/03/27 10:56:09;;;;;;;10.18;5.25;;;;;;;25.40;38.76;102342.38;5090296;28;20734;-53
2023/03/27 10:58:43;;;;;;;10.18;5.43;;;;;;;25.37;39.18;102342.28;5090635;28;20465;-53
2023/03/27 11:01:33;;;;;;;8.63;4.50;;;;;;;25.46;39.27;102343.47;5090657;28;20039;-48
2023/03/27 11:04:08;;;;;;;9.77;4.30;;;;;;;25.42;39.11;102343.34;5085992;28;20081;-53
2023/03/27 11:06:39;;;;;;;11.50;4.80;;;;;;;25.40;38.77;102343.25;5093595;28;20126;-52
2023/03/27 11:09:16;;;;;;;11.55;4.47;;;;;;;25.40;38.70;102345.00;5090712;28;20053;-49
2023/03/27 11:11:50;;;;;;;14.05;5.53;;;;;;;25.40;38.96;102338.00;5087802;28;20426;-51
2023/03/27 11:14:20;;;;;;;;;;;;;;;25.41;38.70;102334.53;5090035;28;20040;-52
2023/03/27 11:16:54;;;;;;;8.90;4.55;;;;;;;25.42;38.42;102341.59;5092892;28;19965;-52
2023/03/27 11:19:31;;;;;;;10.00;5.13;;;;;;;25.42;38.52;102340.72;5092708;28;20080;-50
2023/03/27 11:22:13;;;;;;;16.25;6.40;;;;;;;25.37;38.57;102337.03;5085517;28;20122;-50
2023/03/27 11:24:53;;;;;;;13.15;5.80;;;;;;;25.36;38.57;102330.91;5090387;28;20032;-50
2023/03/27 11:27:28;;;;;;;8.50;5.13;;;;;;;25.34;38.54;102328.22;5093006;28;20129;-52
2023/03/27 11:30:07;;;;;;;12.82;5.88;;;;;;;25.42;38.36;102323.22;5093877;28;20027;-49
2023/03/27 11:32:51;;;;;;;13.85;5.43;;;;;;;25.42;38.07;102331.09;5085594;28;20111;-52
2023/03/27 11:35:23;;;;;;;9.55;4.82;;;;;;;25.37;38.45;102321.28;5093499;28;20020;-51
2023/03/27 11:37:58;;;;;;;9.43;4.60;;;;;;;25.36;38.50;102322.13;5089294;28;20050;-51
2023/03/27 11:40:28;;;;;;;;;;;;;;;25.41;38.12;102323.16;5087247;28;20036;-51
2023/03/27 11:42:56;;;;;;;9.30;4.63;;;;;;;25.41;38.13;102318.78;5081870;28;20473;-48
2023/03/27 11:45:25;;;;;;;13.52;6.53;;;;;;;25.46;38.20;102324.22;5086372;28;20465;-53
2023/03/27 11:48:12;;;;;;;14.88;6.10;;;;;;;25.45;38.11;102322.44;5090346;28;20020;-49
2023/03/27 11:51:01;;;;;;;17.65;8.77;;;;;;;25.41;38.15;102323.16;5085685;28;20032;-50
2023/03/27 11:53:52;;;;;;;15.70;6.88;;;;;;;25.40;38.26;102317.00;5072577;28;20027;-49
2023/03/27 11:56:30;;;;;;;13.25;6.57;;;;;;;25.42;38.31;102322.34;5086607;28;20462;-50
2023/03/27 11:59:09;;;;;;;10.57;5.88;;;;;;;25.45;38.06;102319.81;5093399;28;20052;-49
2023/03/27 12:01:45;;;;;;;14.35;5.60;;;;;;;25.41;38.16;102324.03;5088579;28;20024;-50
2023/03/27 12:04:22;;;;;;;15.25;5.97;;;;;;;25.40;38.27;102311.72;5089026;28;20048;-49
2023/03/27 12:06:59;;;;;;;13.90;7.38;;;;;;;25.40;38.18;102314.34;5089748;28;20024;-49
2023/03/27 12:09:47;;;;;;;12.07;6.15;;;;;;;25.42;38.44;102317.97;5089076;28;20035;-51
2023/03/27 12:12:41;;;;;;;12.55;6.32;;;;;;;25.33;38.35;102305.41;5078842;28;20134;-49
2023/03/27 12:15:16;;;;;;;11.25;6.10;;;;;;;25.29;38.33;102319.34;5079889;28;20115;-49
2023/03/27 12:17:48;;;;;;;13.45;6.72;;;;;;;25.35;38.49;102313.38;5092959;28;20028;-51
2023/03/27 12:20:29;;;;;;;11.70;6.50;;;;;;;25.44;38.36;102308.38;5091616;28;20028;-49
2023/03/27 12:23:36;;;;;;;18.73;8.45;;;;;;;25.44;38.22;102308.38;5086752;28;20035;-49
2023/03/27 12:26:22;;;;;;;14.82;7.05;;;;;;;25.43;38.36;102308.34;5085555;28;20036;-53
2023/03/27 12:29:29;;;;;;;18.77;7.22;;;;;;;25.40;38.30;102310.84;5089693;28;20385;-49
2023/03/27 12:32:06;;;;;;;10.20;6.85;;;;;;;25.37;38.31;102314.31;5079691;28;20093;-50
2023/03/27 12:34:55;;;;;;;12.60;7.88;;;;;;;25.41;38.21;102297.75;5089591;28;20036;-49
2023/03/27 12:37:28;;;;;;;13.38;7.78;;;;;;;25.44;38.05;102302.25;5088415;28;20103;-52
2023/03/27 12:39:58;;;;;;;16.70;8.15;;;;;;;25.36;37.93;102294.13;5079243;28;20032;-50
2023/03/27 12:42:49;;;;;;;13.88;7.47;;;;;;;25.39;37.96;102304.72;5079447;28;20453;-49
2023/03/27 12:45:21;;;;;;;18.90;7.97;;;;;;;25.13;38.10;102270.72;5087499;28;20138;-49
2023/03/27 12:48:08;;;;;;;14.60;8.35;;;;;;;25.24;38.33;102292.03;5092399;28;20427;-52
2023/03/27 12:50:46;;;;;;;11.02;7.03;;;;;;;25.37;38.20;102302.88;5077571;28;20067;-52
2023/03/27 12:53:33;;;;;;;11.77;6.20;;;;;;;25.30;38.67;102307.97;5085036;28;20020;-53
2023/03/27 12:56:15;;;;;;;13.40;7.50;;;;;;;25.27;38.40;102315.78;5079793;28;20043;-52
2023/03/27 12:58:43;;;;;;;13.70;7.25;;;;;;;25.30;38.28;102313.25;5085054;28;20103;-52
2023/03/27 13:01:22;;;;;;;11.38;6.25;;;;;;;25.28;38.54;102307.03;5083614;28;20024;-51
2023/03/27 13:04:18;;;;;;;13.65;6.75;;;;;;;25.32;38.43;102308.00;5088809;28;20051;-54
2023/03/27 13:06:55;;;;;;;15.18;7.47;;;;;;;25.33;38.25;102299.28;5075573;28;20028;-53
2023/03/27 13:09:35;;;;;;;12.45;7.65;;;;;;;25.32;38.62;102308.00;5088336;28;20032;-52
2023/03/27 13:12:36;;;;;;;12.02;7.35;;;;;;;25.31;38.09;102307.16;5087419;28;20111;-49
2023/03/27 13:15:16;;;;;;;11.73;7.32;;;;;;;25.30;38.30;102307.97;5088607;28;20105;-51
2023/03/27 13:18:22;;;;;;;13.75;6.95;;;;;;;25.30;38.27;102304.44;5089736;28;20031;-51
2023/03/27 13:20:50;;;;;;;;;;;;;;;25.31;38.04;102309.78;5082268;28;20032;-52
2023/03/27 13:23:38;;;;;;;13.57;7.40;;;;;;;25.36;38.19;102309.91;5086103;28;20055;-52
2023/03/27 13:26:30;;;;;;;13.85;7.40;;;;;;;25.33;38.27;102310.66;5065079;28;20041;-50
2023/03/27 13:28:59;;;;;;;12.18;6.65;;;;;;;25.26;38.58;102306.09;5069394;28;20045;-49
2023/03/27 13:31:48;;;;;;;11.55;6.95;;;;;;;25.28;38.25;102306.13;5072538;28;20076;-52
2023/03/27 13:34:34;;;;;;;12.00;7.40;;;;;;;25.34;38.19;102298.44;5070183;28;20096;-51
2023/03/27 13:37:21;;;;;;;10.02;5.97;;;;;;;25.26;38.38;102292.97;5105406;22;20144;-52
2023/03/27 13:40:00;;;;;;;12.82;6.32;;;;;;;25.31;38.15;102301.88;5015710;28;20038;-51
2023/03/27 13:42:34;;;;;;;11.73;5.88;;;;;;;25.29;38.09;102293.06;5020282;28;20512;-51
2023/03/27 13:45:05;;;;;;;11.70;6.68;;;;;;;25.29;38.22;102292.16;5031568;28;20530;-50
2023/03/27 13:47:32;;;;;;;9.57;5.88;;;;;;;25.31;38.15;102294.00;5023028;28;20025;-52
2023/03/27 13:50:20;;;;;;;11.13;6.68;;;;;;;25.32;37.92;102297.50;5021477;28;20428;-52
2023/03/27 13:52:59;;;;;;;10.35;6.07;;;;;;;25.26;38.03;102285.09;5024414;28;20045;-50
2023/03/27 13:56:05;;;;;;;14.43;6.43;;;;;;;25.28;38.25;102288.66;5028552;28;20037;-51
2023/03/27 13:58:52;;;;;;;9.68;5.93;;;;;;;25.34;38.19;102291.44;5023327;28;20156;-50
2023/03/27 14:01:59;;;;;;;8.90;6.10;;;;;;;25.29;38.01;102293.06;5031636;28;20056;-52
2023/03/27 14:04:50;;;;;;;15.38;6.97;;;;;;;25.25;38.03;102291.19;5017713;28;20117;-52
2023/03/27 14:07:46;;;;;;;15.30;6.78;;;;;;;25.26;38.24;102287.72;5023643;28;20049;-50
2023/03/27 14:10:52;;;;;;;12.50;6.00;;;;;;;25.27;38.15;102280.72;5021072;28;20042;-50
2023/03/27 14:13:21;;;;;;;11.73;7.07;;;;;;;25.31;37.73;102285.22;5027278;28;20037;-52
2023/03/27 14:16:08;;;;;;;15.65;7.95;;;;;;;25.36;37.93;102290.59;5024174;28;20038;-51
2023/03/27 14:19:14;;;;;;;16.88;7.40;;;;;;;25.31;38.21;102286.13;5025658;28;20032;-51
2023/03/27 14:21:56;;;;;;;14.68;7.75;;;;;;;25.31;37.96;102285.22;5025843;28;20067;-51
2023/03/27 14:24:29;;;;;;;11.82;7.00;;;;;;;25.29;38.10;102290.44;5021456;28;20048;-50
2023/03/27 14:26:57;;;;;;;11.90;6.88;;;;;;;25.36;37.92;102283.63;5020428;28;20113;-53
2023/03/27 14:29:24;;;;;;;10.75;5.93;;;;;;;25.37;38.02;102293.28;5029939;28;20083;-51
2023/03/27 14:31:51;;;;;;;13.50;7.07;;;;;;;25.35;38.20;102297.59;5031122;28;20040;-52
2023/03/27 14:34:23;;;;;;;11.45;6.63;;;;;;;25.27;38.42;102291.22;5030258;28;21068;-54
2023/03/27 14:36:51;;;;;;;14.65;6.93;;;;;;;25.36;38.21;102291.50;5016989;28;20049;-51
2023/03/27 14:39:20;;;;;;;10.63;6.40;;;;;;;25.32;38.37;102293.13;5029720;28;20386;-51
2023/03/27 14:42:00;;;;;;;12.63;6.28;;;;;;;25.32;38.25;102287.00;5028025;28;20493;-51
2023/03/27 14:44:32;;;;;;;11.88;7.50;;;;;;;25.31;38.07;102293.09;5026920;28;20100;-50
2023/03/27 14:47:07;;;;;;;13.43;6.18;;;;;;;25.38;38.12;102291.53;5015568;28;20470;-53
2023/03/27 14:49:39;;;;;;;11.55;6.03;;;;;;;25.15;38.28;102289.16;5015551;28;20022;-51
2023/03/27 14:52:08;;;;;;;12.07;6.28;;;;;;;25.44;37.85;102297.00;5014186;28;20029;-50
2023/03/27 14:54:39;;;;;;;10.90;6.00;;;;;;;25.38;38.14;102292.44;5014761;28;20450;-50
2023/03/27 14:57:09;;;;;;;10.52;6.20;;;;;;;25.33;38.10;102297.53;5013873;28;20545;-50
2023/03/27 14:59:41;;;;;;;11.75;6.35;;;;;;;25.43;37.78;102284.72;5014186;28;20033;-50
2023/03/27 15:02:18;;;;;;;11.15;6.10;;;;;;;25.37;38.29;102290.66;5013890;28;20030;-51
2023/03/27 15:04:47;;;;;;;14.20;6.35;;;;;;;25.36;38.19;102283.63;5013419;28;20038;-50
2023/03/27 15:07:19;;;;;;;12.57;6.70;;;;;;;25.37;38.30;102280.16;5015253;28;20072;-53
2023/03/27 15:10:00;;;;;;;11.82;5.72;;;;;;;25.33;38.45;102267.78;5013139;28;20022;-50
2023/03/27 15:12:29;;;;;;;15.18;5.75;;;;;;;25.29;38.23;102266.81;5027356;28;20124;-50
2023/03/27 15:14:58;;;;;;;11.40;5.85;;;;;;;25.30;38.59;102268.59;5034585;28;20033;-50
2023/03/27 15:17:29;;;;;;;10.00;5.88;;;;;;;25.32;38.48;102261.63;5035254;28;20497;-50
2023/03/27 15:20:13;;;;;;;10.55;6.13;;;;;;;25.27;38.40;102268.50;5033590;28;20030;-49
2023/03/27 15:22:47;;;;;;;13.15;6.80;;;;;;;25.28;38.60;102257.16;5034565;28;20030;-50
2023/03/27 15:25:20;;;;;;;11.40;6.60;;;;;;;25.26;38.50;102260.56;5034391;28;20025;-50
2023/03/27 15:27:52;;;;;;;11.48;5.57;;;;;;;25.26;38.32;102255.31;5034738;28;20033;-50
2023/03/27 15:30:43;;;;;;;9.35;5.63;;;;;;;25.24;38.46;102250.00;5032990;28;20041;-50
2023/03/27 15:33:19;;;;;;;14.60;6.32;;;;;;;25.22;38.60;102254.34;5032062;28;20565;-54
2023/03/27 15:35:51;;;;;;;7.78;5.35;;;;;;;25.21;38.46;102247.31;5033503;28;20474;-50
2023/03/27 15:38:27;;;;;;;9.40;5.38;;;;;;;25.18;38.48;102240.25;5033177;28;20107;-50
2023/03/27 15:41:02;;;;;;;11.27;5.53;;;;;;;25.17;38.73;102248.97;5032354;28;20025;-50
2023/03/27 15:43:30;;;;;;;;;;;;;;;25.17;38.52;102245.44;5034613;28;20026;-51
2023/03/27 15:46:03;;;;;;;7.47;4.88;;;;;;;25.18;38.55;102234.97;5034447;28;19913;-52
2023/03/27 15:48:34;;;;;;;9.82;5.13;;;;;;;25.18;38.51;102237.63;5033937;28;20028;-51
2023/03/27 15:51:06;;;;;;;7.97;4.97;;;;;;;25.14;38.85;102242.75;5033675;28;20042;-50
2023/03/27 15:53:38;;;;;;;11.30;5.82;;;;;;;25.12;38.69;102244.44;5033942;28;20036;-50
2023/03/27 15:56:27;;;;;;;10.07;5.22;;;;;;;25.12;38.74;102252.31;5034086;28;20032;-50
2023/03/27 15:59:14;;;;;;;8.80;5.50;;;;;;;25.10;38.87;102244.38;5030742;28;20091;-49
2023/03/27 16:01:52;;;;;;;11.35;6.20;;;;;;;25.05;38.78;102242.47;5033863;28;20029;-51
2023/03/27 16:04:26;;;;;;;10.15;5.35;;;;;;;25.08;38.71;102245.19;5032500;28;20056;-50
2023/03/27 16:07:07;;;;;;;8.43;4.60;;;;;;;24.99;38.81;102228.31;5032716;28;20029;-52
2023/03/27 16:09:48;;;;;;;10.73;5.78;;;;;;;25.07;38.73;102238.16;5033605;28;20029;-54
2023/03/27 16:12:17;;;;;;;8.25;5.03;;;;;;;25.06;38.93;102232.03;5031452;28;20025;-50
2023/03/27 16:14:51;;;;;;;9.25;5.20;;;;;;;25.07;38.68;102232.91;5033686;28;20057;-49
2023/03/27 16:17:33;;;;;;;9.45;6.07;;;;;;;25.07;38.89;102232.91;5033361;28;20033;-50
2023/03/27 16:20:23;;;;;;;9.23;5.78;;;;;;;25.09;38.70;102244.34;5032410;28;20029;-54
2023/03/27 16:22:52;;;;;;;8.40;5.30;;;;;;;25.12;38.64;102237.44;5033339;28;20087;-50
2023/03/27 16:25:20;;;;;;;9.23;5.22;;;;;;;25.09;38.97;102241.72;5033215;28;20126;-50
2023/03/27 16:27:53;;;;;;;9.98;5.35;;;;;;;25.12;38.93;102236.56;5033507;28;20500;-50
2023/03/27 16:30:25;;;;;;;10.23;5.75;;;;;;;25.17;38.78;102235.84;5074988;22;20077;-52
2023/03/27 16:32:54;;;;;;;8.65;4.88;;;;;;;25.14;38.57;102229.63;4990417;28;20035;-51
2023/03/27 16:35:23;;;;;;;8.95;5.10;;;;;;;25.13;38.59;102238.34;4993815;28;20022;-50
2023/03/27 16:37:53;;;;;;;10.98;5.72;;;;;;;25.14;38.73;102230.47;5005066;28;20030;-54
2023/03/27 16:40:20;;;;;;;9.98;5.88;;;;;;;25.14;38.74;102234.88;5013690;28;20038;-50
2023/03/27 16:42:49;;;;;;;10.27;5.82;;;;;;;25.24;38.53;102241.22;5013254;28;20057;-53
2023/03/27 16:45:18;;;;;;;9.68;6.13;;;;;;;25.27;38.48;102236.97;5013420;28;20434;-53
2023/03/27 16:47:47;;;;;;;13.15;6.28;;;;;;;25.31;38.31;102232.69;5013041;28;20109;-51
2023/03/27 16:50:19;;;;;;;9.23;6.15;;;;;;;25.44;37.76;102231.31;5012881;28;20030;-51
2023/03/27 16:52:46;;;;;;;9.85;5.75;;;;;;;25.38;38.13;102239.91;4990889;28;20034;-54
2023/03/27 16:55:14;;;;;;;10.65;6.55;;;;;;;25.48;37.62;102239.31;4983243;28;20099;-52
2023/03/27 16:57:42;;;;;;;10.07;5.40;;;;;;;25.33;37.98;102247.63;4983983;28;20402;-51
2023/03/27 17:00:10;;;;;;;10.05;5.68;;;;;;;25.26;38.05;102245.69;4980954;28;20023;-54
2023/03/27 17:02:38;;;;;;;10.57;6.32;;;;;;;25.33;38.22;102254.63;4987683;28;20054;-52
2023/03/27 17:05:07;;;;;;;9.30;6.10;;;;;;;25.28;37.99;102254.53;4984488;28;20101;-54
2023/03/27 17:07:35;;;;;;;9.63;6.90;;;;;;;25.36;37.87;102257.34;4981332;28;20384;-51
2023/03/27 17:10:04;;;;;;;13.13;5.65;;;;;;;25.35;37.89;102258.19;4985026;28;20030;-54
2023/03/27 17:12:32;;;;;;;8.45;5.80;;;;;;;25.33;38.16;102257.25;4984394;28;20056;-52
2023/03/27 17:15:00;;;;;;;11.25;6.32;;;;;;;25.33;37.89;102259.88;4981279;28;20027;-52
2023/03/27 17:17:29;;;;;;;12.40;6.78;;;;;;;25.36;37.87;102259.06;4981800;28;20491;-51
2023/03/27 17:19:56;;;;;;;11.50;6.95;;;;;;;25.21;38.42;102257.81;4984164;28;20061;-50
2023/03/27 17:22:25;;;;;;;8.27;5.57;;;;;;;25.17;38.35;102256.84;4991734;28;20033;-53
2023/03/27 17:24:53;;;;;;;9.90;5.82;;;;;;;25.27;38.10;102258.00;4983806;28;20093;-50
2023/03/27 17:27:20;;;;;;;9.02;6.03;;;;;;;25.31;38.20;102262.50;4987104;28;20492;-50
2023/03/27 17:29:48;;;;;;;10.18;6.20;;;;;;;25.36;37.49;102262.59;4995119;28;20034;-50
2023/03/27 17:32:15;;;;;;;8.52;5.47;;;;;;;25.24;38.09;102264.88;4992697;28;20479;-51
2023/03/27 17:34:43;;;;;;;10.48;5.28;;;;;;;25.26;37.95;102250.06;4985622;28;20435;-50
2023/03/27 17:37:11;;;;;;;9.32;6.13;;;;;;;25.26;38.01;102256.22;4988503;28;20018;-50
2023/03/27 17:39:38;;;;;;;9.18;5.25;;;;;;;25.23;37.97;102258.75;4991878;28;20030;-50
2023/03/27 17:42:06;;;;;;;10.32;5.25;;;;;;;25.30;37.81;102255.47;4993189;28;20586;-49
2023/03/27 17:44:36;;;;;;;12.65;5.97;;;;;;;25.30;37.70;102255.47;4984555;28;20039;-50
2023/03/27 17:47:07;;;;;;;8.18;5.25;;;;;;;25.32;37.94;102253.72;4988018;28;20361;-50
2023/03/27 17:49:34;;;;;;;10.20;6.50;;;;;;;25.28;37.89;102257.16;4984980;28;20093;-51
2023/03/27 17:52:06;;;;;;;11.20;5.28;;;;;;;25.27;38.02;102255.38;4995133;28;20476;-51
2023/03/27 17:54:36;;;;;;;12.77;6.30;;;;;;;25.29;37.81;102252.75;4985151;28;20035;-51
2023/03/27 17:57:04;;;;;;;9.25;5.47;;;;;;;25.24;37.91;102257.00;4987459;28;20487;-51
2023/03/27 17:59:32;;;;;;;8.38;5.35;;;;;;;25.20;37.93;102253.41;4984436;28;20026;-50
2023/03/27 18:02:00;;;;;;;10.18;5.30;;;;;;;25.22;38.02;102243.81;4988713;28;20022;-51
2023/03/27 18:04:28;;;;;;;12.50;6.25;;;;;;;25.29;37.68;102243.16;4984302;28;20034;-49
2023/03/27 18:06:57;;;;;;;12.02;5.88;;;;;;;25.31;37.54;102253.69;4994392;28;20026;-54
2023/03/27 18:09:25;;;;;;;8.98;5.30;;;;;;;25.24;37.83;102235.97;4985518;28;20503;-51
2023/03/27 18:11:53;;;;;;;9.27;5.90;;;;;;;25.20;37.86;102235.00;4992956;28;20141;-49
2023/03/27 18:14:22;;;;;;;9.35;5.57;;;;;;;25.19;37.71;102235.84;5016354;28;20394;-49
2023/03/27 18:16:51;;;;;;;12.73;6.18;;;;;;;25.23;37.76;102240.34;5016180;28;20026;-50
2023/03/27 18:19:19;;;;;;;10.88;6.00;;;;;;;25.21;37.70;102242.03;5016036;28;20483;-49
2023/03/27 18:21:48;;;;;;;10.35;6.72;;;;;;;25.17;37.63;102237.53;5015980;28;20060;-50
2023/03/27 18:24:17;;;;;;;11.27;7.35;;;;;;;25.14;37.78;102232.25;5015742;28;20037;-49
2023/03/27 18:26:44;;;;;;;12.15;7.25;;;;;;;25.12;38.22;102237.44;5015891;28;20033;-49
2023/03/27 18:29:13;;;;;;;13.57;9.43;;;;;;;25.12;37.82;102224.28;5015731;28;20037;-49
2023/03/27 18:31:42;;;;;;;14.05;8.60;;;;;;;25.09;38.02;102216.31;5014395;28;20414;-50
2023/03/27 18:34:10;;;;;;;12.50;8.50;;;;;;;25.15;37.86;102234.03;5013889;28;20105;-52
2023/03/27 18:36:38;;;;;;;11.90;8.25;;;;;;;24.96;38.07;102212.50;5014010;28;20116;-50
2023/03/27 18:39:07;;;;;;;13.55;6.95;;;;;;;25.15;37.68;102228.75;5015354;28;20040;-50
2023/03/27 18:41:36;;;;;;;19.58;10.82;;;;;;;25.04;37.98;102225.84;5013876;28;20044;-50
2023/03/27 18:44:05;;;;;;;20.90;11.40;;;;;;;24.97;38.03;102234.38;5015391;28;20041;-50
2023/03/27 18:46:34;;;;;;;21.50;12.02;;;;;;;25.16;37.77;102226.16;5015518;28;20515;-49
2023/03/27 18:49:03;;;;;;;41.15;17.23;;;;;;;25.09;37.96;102231.22;5015556;28;20121;-49
2023/03/27 18:51:31;;;;;;;36.05;15.75;;;;;;;25.16;37.81;102217.38;5014013;28;20394;-50
2023/03/27 18:54:00;;;;;;;30.00;15.93;;;;;;;25.13;37.96;102217.31;5015176;28;20022;-49
2023/03/27 18:56:28;;;;;;;38.35;17.40;;;;;;;25.29;37.47;102216.91;5015479;28;20061;-49
2023/03/27 18:58:57;;;;;;;34.70;16.75;;;;;;;25.30;37.80;102216.06;5014056;28;20029;-49
2023/03/27 19:01:25;;;;;;;40.00;17.50;;;;;;;25.29;37.83;102219.53;5015217;28;20537;-50
2023/03/27 19:03:54;;;;;;;39.10;18.60;;;;;;;25.31;37.71;102220.47;5014987;28;20046;-49
2023/03/27 19:06:24;;;;;;;37.95;17.85;;;;;;;25.33;37.85;102217.88;5015011;28;20030;-50
2023/03/27 19:08:52;;;;;;;45.25;18.10;;;;;;;25.30;37.89;102221.31;5015258;28;20025;-50
2023/03/27 19:11:21;;;;;;;41.40;18.45;;;;;;;25.16;37.93;102220.00;5015183;28;20026;-49
2023/03/27 19:13:50;;;;;;;36.00;16.48;;;;;;;25.12;38.22;102216.41;5014968;28;20029;-50
2023/03/27 19:16:18;;;;;;;40.25;16.67;;;;;;;25.16;37.91;102227.88;5014853;28;20108;-48
2023/03/27 19:18:47;;;;;;;31.90;16.05;;;;;;;25.21;37.77;102231.53;5014874;28;20053;-48
2023/03/27 19:21:15;;;;;;;36.17;16.33;;;;;;;25.20;37.81;102232.38;5015638;28;20544;-49
2023/03/27 19:23:44;;;;;;;34.90;15.98;;;;;;;25.11;37.90;102229.53;5014242;28;20048;-49
2023/03/27 19:26:14;;;;;;;37.78;16.02;;;;;;;25.09;38.26;102241.72;5014613;28;20037;-54
2023/03/27 19:28:46;;;;;;;36.75;16.15;;;;;;;25.20;37.71;102242.91;5014898;28;20041;-50
2023/03/27 19:31:15;;;;;;;31.73;15.10;;;;;;;25.25;37.96;102238.66;5014209;28;20053;-49
2023/03/27 19:33:44;;;;;;;30.42;15.13;;;;;;;25.20;37.72;102242.03;5030136;28;20037;-49
2023/03/27 19:36:12;;;;;;;25.52;13.55;;;;;;;25.17;37.88;102238.47;5014568;28;20022;-53
2023/03/27 19:38:41;;;;;;;27.73;13.50;;;;;;;25.05;38.40;102237.22;5014727;28;20026;-49
2023/03/27 19:41:10;;;;;;;27.67;14.18;;;;;;;24.92;38.72;102231.63;5014720;28;20030;-49
2023/03/27 19:43:39;;;;;;;30.23;14.18;;;;;;;24.91;38.34;102224.59;5014382;28;20030;-49
2023/03/27 19:46:07;;;;;;;24.98;12.07;;;;;;;24.87;38.63;102222.72;5013039;28;20025;-48
2023/03/27 19:48:36;;;;;;;29.17;13.63;;;;;;;24.93;38.29;102224.63;5013587;28;20022;-51
2023/03/27 19:51:05;;;;;;;23.65;12.52;;;;;;;24.91;38.29;102213.19;5014595;28;20064;-49
2023/03/27 19:53:33;;;;;;;24.25;11.60;;;;;;;25.10;37.76;102214.59;5014391;28;20109;-53
2023/03/27 19:56:02;;;;;;;20.38;11.00;;;;;;;25.00;38.17;102213.47;5029634;28;20112;-49
2023/03/27 19:58:31;;;;;;;22.20;11.25;;;;;;;24.93;38.44;102209.78;5014157;28;20040;-52
2023/03/27 20:00:59;;;;;;;21.48;10.63;;;;;;;24.97;37.97;102202.88;5013932;28;20022;-49
2023/03/27 20:03:28;;;;;;;26.33;13.10;;;;;;;25.00;38.09;102209.09;5013804;28;20030;-50
2023/03/27 20:05:57;;;;;;;27.33;10.90;;;;;;;25.02;38.14;102209.16;5014007;28;20148;-52
2023/03/27 20:08:29;;;;;;;18.80;9.45;;;;;;;25.05;38.05;102203.97;5014173;28;20541;-48
2023/03/27 20:10:56;;;;;;;19.40;9.90;;;;;;;25.10;37.76;102199.72;5013870;28;20029;-54
2023/03/27 20:13:25;;;;;;;25.33;10.85;;;;;;;25.09;37.91;102197.06;5013816;28;20164;-49
